Time;durP1;ratioP1;P1;durP2;ratioP2;P2;SDS_P1;SDS_P2;PMS_P1;PMS_P2;Temp;Humidity;BMP_temperature;BMP_pressure;BME280_temperature;BME280_humidity;BME280_pressure;Samples;Min_cycle;Max_cycle;Signal;HPM_P1;HPM_P2
2021/04/20 00:01:39;;;;;;;43.17;27.88;;;;;;;-145.19;100.00;59999.88;5029305;28;20046;-69
2021/04/20 00:04:05;;;;;;;38.15;26.33;;;;;;;-145.19;100.00;59999.88;5032225;28;20111;-71
2021/04/20 00:06:32;;;;;;;43.40;27.13;;;;;;;-145.19;100.00;59999.88;5032405;28;20935;-68
2021/04/20 00:08:59;;;;;;;37.45;25.23;;;;;;;-145.19;100.00;59999.88;5021166;28;20164;-68
2021/04/20 00:11:25;;;;;;;37.85;25.80;;;;;;;-145.19;100.00;59999.88;5028488;28;20049;-69
2021/04/20 00:13:51;;;;;;;38.33;26.95;;;;;;;-145.19;100.00;59999.88;5029317;28;20049;-69
2021/04/20 00:16:17;;;;;;;80.28;40.25;;;;;;;-145.19;100.00;59999.88;5030205;28;20048;-68
2021/04/20 00:18:43;;;;;;;42.08;27.67;;;;;;;-145.19;100.00;59999.88;5031964;28;20493;-70
2021/04/20 00:21:10;;;;;;;36.83;27.40;;;;;;;-145.19;100.00;59999.88;5028406;28;20042;-71
2021/04/20 00:23:36;;;;;;;39.35;26.50;;;;;;;-145.19;100.00;59999.88;5030408;28;20132;-69
2021/04/20 00:26:02;;;;;;;41.28;28.15;;;;;;;-145.19;100.00;59999.88;5030891;28;20068;-68
2021/04/20 00:28:28;;;;;;;44.75;29.88;;;;;;;-145.19;100.00;59999.88;5031471;28;20045;-68
2021/04/20 00:30:55;;;;;;;44.88;29.45;;;;;;;-145.19;100.00;59999.88;5028407;28;20497;-69
2021/04/20 00:33:22;;;;;;;39.43;27.67;;;;;;;-145.19;100.00;59999.88;5031588;28;20065;-68
2021/04/20 00:35:49;;;;;;;39.33;27.25;;;;;;;-145.19;100.00;59999.88;5030336;28;20033;-68
2021/04/20 00:38:15;;;;;;;58.37;34.07;;;;;;;-145.19;100.00;59999.88;5028881;28;20044;-69
2021/04/20 00:40:41;;;;;;;42.35;28.48;;;;;;;-145.19;100.00;59999.88;5029547;28;20128;-68
2021/04/20 00:43:08;;;;;;;45.30;29.95;;;;;;;-145.19;100.00;59999.88;5030970;28;20489;-69
2021/04/20 00:45:36;;;;;;;40.50;28.40;;;;;;;-145.19;100.00;59999.88;5026369;28;20066;-68
2021/04/20 00:48:03;;;;;;;39.67;28.00;;;;;;;-145.19;100.00;59999.88;5027321;28;20045;-70
2021/04/20 00:50:35;;;;;;;47.35;30.83;;;;;;;-145.19;100.00;59999.88;5030247;28;20381;-69
2021/04/20 00:53:02;;;;;;;46.83;31.77;;;;;;;-145.19;100.00;59999.88;5028705;28;20053;-69
2021/04/20 00:55:30;;;;;;;52.33;33.55;;;;;;;-145.19;100.00;59999.88;5024702;28;20076;-68
2021/04/20 00:57:58;;;;;;;46.58;30.60;;;;;;;-145.19;100.00;59999.88;5030123;28;20079;-68
2021/04/20 01:00:27;;;;;;;45.28;30.08;;;;;;;-145.19;100.00;59999.88;5026686;28;20111;-68
2021/04/20 01:02:54;;;;;;;45.42;30.90;;;;;;;-145.19;100.00;59999.88;5027358;28;20513;-68
2021/04/20 01:05:28;;;;;;;43.78;30.27;;;;;;;-145.19;100.00;59999.88;5029003;28;20041;-69
2021/04/20 01:07:58;;;;;;;42.80;29.48;;;;;;;-145.19;100.00;59999.88;5026511;28;20124;-69
2021/04/20 01:10:26;;;;;;;46.13;31.83;;;;;;;-145.19;100.00;59999.88;5030263;28;20044;-69
2021/04/20 01:12:53;;;;;;;44.75;30.58;;;;;;;-145.19;100.00;59999.88;5031072;28;20088;-69
2021/04/20 01:15:19;;;;;;;46.08;29.42;;;;;;;-145.19;100.00;59999.88;5025578;28;20159;-68
2021/04/20 01:17:46;;;;;;;42.80;28.33;;;;;;;-145.19;100.00;59999.88;5030303;28;20657;-68
2021/04/20 01:20:13;;;;;;;46.50;31.17;;;;;;;-145.19;100.00;59999.88;5029965;28;20069;-69
2021/04/20 01:22:45;;;;;;;43.83;28.93;;;;;;;-145.19;100.00;59999.88;5031220;28;20045;-69
2021/04/20 01:25:13;;;;;;;40.60;28.15;;;;;;;-145.19;100.00;59999.88;5028747;28;20485;-69
2021/04/20 01:27:41;;;;;;;41.47;28.05;;;;;;;-145.19;100.00;59999.88;5030038;28;20091;-69
2021/04/20 01:30:10;;;;;;;41.97;28.00;;;;;;;-145.19;100.00;59999.88;5031334;28;20048;-69
2021/04/20 01:32:38;;;;;;;46.58;31.65;;;;;;;-145.19;100.00;59999.88;5027606;28;20037;-69
2021/04/20 01:35:07;;;;;;;46.17;30.77;;;;;;;-145.19;100.00;59999.88;5029544;28;20049;-72
2021/04/20 01:37:33;;;;;;;41.35;28.85;;;;;;;-145.19;100.00;59999.88;5029193;28;20052;-69
2021/04/20 01:40:00;;;;;;;40.92;26.60;;;;;;;-145.19;100.00;59999.88;5028641;28;20056;-69
2021/04/20 01:42:27;;;;;;;49.10;32.77;;;;;;;-145.19;100.00;59999.88;5028998;28;20042;-69
2021/04/20 01:44:53;;;;;;;42.55;27.92;;;;;;;-145.19;100.00;59999.88;5030198;28;20047;-69
2021/04/20 01:47:19;;;;;;;40.88;27.80;;;;;;;-145.19;100.00;59999.88;5029274;28;20034;-69
2021/04/20 01:49:45;;;;;;;45.35;30.25;;;;;;;-145.19;100.00;59999.88;5029652;28;20046;-69
2021/04/20 01:52:13;;;;;;;44.45;29.75;;;;;;;-145.19;100.00;59999.88;5030697;28;20052;-69
2021/04/20 01:54:40;;;;;;;44.67;29.10;;;;;;;-145.19;100.00;59999.88;5029219;28;20041;-70
2021/04/20 01:57:07;;;;;;;50.17;32.88;;;;;;;-145.19;100.00;59999.88;5031567;28;20108;-69
2021/04/20 01:59:34;;;;;;;47.47;32.33;;;;;;;-145.19;100.00;59999.88;5033829;28;20061;-69
2021/04/20 02:02:01;;;;;;;42.03;29.27;;;;;;;-145.19;100.00;59999.88;5033333;28;20497;-69
2021/04/20 02:04:27;;;;;;;39.40;27.58;;;;;;;-145.19;100.00;59999.88;5033170;28;20990;-69
2021/04/20 02:06:54;;;;;;;68.03;38.17;;;;;;;-145.19;100.00;59999.88;5034298;28;20160;-69
2021/04/20 02:09:20;;;;;;;51.78;31.38;;;;;;;-145.19;100.00;59999.88;5033380;28;20390;-70
2021/04/20 02:11:46;;;;;;;51.78;34.22;;;;;;;-145.19;100.00;59999.88;5032692;28;20048;-69
2021/04/20 02:14:13;;;;;;;42.80;29.92;;;;;;;-145.19;100.00;59999.88;5032010;28;20478;-69
2021/04/20 02:16:40;;;;;;;45.53;31.38;;;;;;;-145.19;100.00;59999.88;5033267;28;20041;-69
2021/04/20 02:19:07;;;;;;;;;;;;;;;-145.19;100.00;59999.88;5030840;28;20073;-69
2021/04/20 02:21:35;;;;;;;44.47;29.45;;;;;;;-145.19;100.00;59999.88;5032774;28;20480;-69
2021/04/20 02:24:01;;;;;;;44.55;30.88;;;;;;;-145.19;100.00;59999.88;5033655;28;20385;-69
2021/04/20 02:26:33;;;;;;;53.97;34.38;;;;;;;-145.19;100.00;59999.88;5031575;28;20037;-69
2021/04/20 02:29:01;;;;;;;49.95;33.70;;;;;;;-145.19;100.00;59999.88;5033616;28;20389;-69
2021/04/20 02:31:27;;;;;;;48.55;29.92;;;;;;;-145.19;100.00;59999.88;5048059;28;20417;-69
2021/04/20 02:33:55;;;;;;;47.60;30.95;;;;;;;-145.19;100.00;59999.88;5032433;28;20128;-69
2021/04/20 02:36:25;;;;;;;44.67;30.10;;;;;;;-145.19;100.00;59999.88;5030775;28;20421;-69
2021/04/20 02:38:51;;;;;;;54.00;34.72;;;;;;;-145.19;100.00;59999.88;5030488;28;20041;-69
2021/04/20 02:41:18;;;;;;;54.05;34.53;;;;;;;-145.19;100.00;59999.88;5031623;28;20466;-69
2021/04/20 02:43:46;;;;;;;62.53;36.65;;;;;;;-145.19;100.00;59999.88;5033372;28;20136;-68
2021/04/20 02:46:13;;;;;;;45.42;30.90;;;;;;;-145.19;100.00;59999.88;5032063;28;20033;-70
2021/04/20 02:48:40;;;;;;;;;;;;;;;-145.19;100.00;59999.88;5031366;28;20051;-69
2021/04/20 02:51:12;;;;;;;50.60;33.35;;;;;;;-145.19;100.00;59999.88;5030447;28;19921;-69
2021/04/20 02:53:40;;;;;;;55.45;34.55;;;;;;;-145.19;100.00;59999.88;5034394;28;20120;-69
2021/04/20 02:56:07;;;;;;;46.05;31.77;;;;;;;-145.19;100.00;59999.88;5031406;28;20907;-69
2021/04/20 02:58:34;;;;;;;57.30;33.95;;;;;;;-145.19;100.00;59999.88;5031387;28;20054;-69
2021/04/20 03:01:17;;;;;;;44.55;29.85;;;;;;;-145.19;100.00;59999.88;5047758;28;20083;-69
2021/04/20 03:03:49;;;;;;;49.10;31.52;;;;;;;-145.19;100.00;59999.88;5030079;28;20620;-69
2021/04/20 03:06:15;;;;;;;41.40;29.17;;;;;;;-145.19;100.00;59999.88;5029373;28;20037;-70
2021/04/20 03:08:47;;;;;;;43.20;29.15;;;;;;;-145.19;100.00;59999.88;5028474;28;20056;-70
2021/04/20 03:11:16;;;;;;;42.05;28.73;;;;;;;-145.19;100.00;59999.88;5031521;28;20512;-69
2021/04/20 03:13:45;;;;;;;45.80;29.02;;;;;;;-145.19;100.00;59999.88;5028757;28;20041;-69
2021/04/20 03:16:25;;;;;;;46.17;29.65;;;;;;;-145.19;100.00;59999.88;5042502;28;20048;-69
2021/04/20 03:18:56;;;;;;;46.15;30.90;;;;;;;-145.19;100.00;59999.88;5029347;28;20561;-69
2021/04/20 03:21:22;;;;;;;47.53;30.40;;;;;;;-145.19;100.00;59999.88;5030342;28;20043;-69
2021/04/20 03:23:53;;;;;;;49.33;32.67;;;;;;;-145.19;100.00;59999.88;5031637;28;20627;-69
2021/04/20 03:26:26;;;;;;;49.78;30.80;;;;;;;-145.19;100.00;59999.88;5031165;28;20042;-69
2021/04/20 03:28:53;;;;;;;49.63;32.63;;;;;;;-145.19;100.00;59999.88;5044618;28;20048;-69
2021/04/20 03:31:19;;;;;;;48.60;31.92;;;;;;;-145.19;100.00;59999.88;5029577;28;20061;-69
2021/04/20 03:33:52;;;;;;;56.88;34.08;;;;;;;-145.19;100.00;59999.88;5030672;28;20507;-68
2021/04/20 03:36:25;;;;;;;53.53;34.05;;;;;;;-145.19;100.00;59999.88;5031484;28;20359;-69
2021/04/20 03:38:58;;;;;;;53.20;34.15;;;;;;;-145.19;100.00;59999.88;5023669;28;20060;-69
2021/04/20 03:41:27;;;;;;;53.35;33.95;;;;;;;-145.19;100.00;59999.88;5029930;28;20051;-69
2021/04/20 03:43:57;;;;;;;44.92;29.73;;;;;;;-145.19;100.00;59999.88;5027805;28;20116;-69
2021/04/20 03:46:30;;;;;;;47.38;30.48;;;;;;;-145.19;100.00;59999.88;5026941;28;20044;-69
2021/04/20 03:49:12;;;;;;;61.90;37.97;;;;;;;-145.19;100.00;59999.88;5030108;28;20050;-69
2021/04/20 03:51:42;;;;;;;58.80;36.83;;;;;;;-145.19;100.00;59999.88;5032936;28;20045;-69
2021/04/20 03:54:10;;;;;;;55.97;35.50;;;;;;;-145.19;100.00;59999.88;5030266;28;20037;-69
2021/04/20 03:56:39;;;;;;;59.22;35.38;;;;;;;-145.19;100.00;59999.88;5028344;28;20045;-69
2021/04/20 03:59:06;;;;;;;51.50;32.90;;;;;;;-145.19;100.00;59999.88;5030103;28;20369;-68
2021/04/20 04:01:38;;;;;;;52.45;32.15;;;;;;;-145.19;100.00;59999.88;5030442;28;20045;-69
2021/04/20 04:04:17;;;;;;;57.63;33.33;;;;;;;-145.19;100.00;59999.88;5029482;28;20064;-69
2021/04/20 04:06:44;;;;;;;66.05;38.17;;;;;;;-145.19;100.00;59999.88;5028831;28;20125;-69
2021/04/20 04:09:12;;;;;;;56.10;34.00;;;;;;;-145.19;100.00;59999.88;5030608;28;20038;-69
2021/04/20 04:11:53;;;;;;;46.80;30.70;;;;;;;-145.19;100.00;59999.88;5029782;28;20048;-69
2021/04/20 04:14:22;;;;;;;47.75;30.40;;;;;;;-145.19;100.00;59999.88;5042354;28;20050;-69
2021/04/20 04:16:49;;;;;;;44.58;28.80;;;;;;;-145.19;100.00;59999.88;5044738;28;20064;-69
2021/04/20 04:19:17;;;;;;;;;;;;;;;-145.19;100.00;59999.88;5029534;28;20049;-69
2021/04/20 04:21:49;;;;;;;43.97;29.30;;;;;;;-145.19;100.00;59999.88;5026612;28;19944;-69
2021/04/20 04:24:18;;;;;;;44.60;28.73;;;;;;;-145.19;100.00;59999.88;5024767;28;20408;-69
2021/04/20 04:26:56;;;;;;;51.95;30.75;;;;;;;-145.19;100.00;59999.88;5029506;28;20076;-70
2021/04/20 04:29:25;;;;;;;43.88;29.98;;;;;;;-145.19;100.00;59999.88;5031064;28;20565;-70
2021/04/20 04:31:53;;;;;;;46.55;29.40;;;;;;;-145.19;100.00;59999.88;5030778;28;20072;-69
2021/04/20 04:34:20;;;;;;;42.67;27.90;;;;;;;-145.19;100.00;59999.88;5032239;28;20116;-70
2021/04/20 04:36:47;;;;;;;47.28;29.23;;;;;;;-145.19;100.00;59999.88;5030161;28;20033;-69
2021/04/20 04:39:16;;;;;;;44.27;29.97;;;;;;;-145.19;100.00;59999.88;5028186;28;20159;-71
2021/04/20 04:41:49;;;;;;;57.90;37.63;;;;;;;-145.19;100.00;59999.88;5031921;28;20064;-70
2021/04/20 04:44:15;;;;;;;47.40;30.63;;;;;;;-145.19;100.00;59999.88;5032396;28;20120;-69
2021/04/20 04:46:43;;;;;;;51.60;31.48;;;;;;;-145.19;100.00;59999.88;5026343;28;20140;-70
2021/04/20 04:49:10;;;;;;;;;;;;;;;-145.19;100.00;59999.88;5030913;28;20174;-74
2021/04/20 04:51:38;;;;;;;55.15;33.55;;;;;;;-145.19;100.00;59999.88;5044673;28;19991;-69
2021/04/20 04:54:08;;;;;;;47.45;29.60;;;;;;;-145.19;100.00;59999.88;5028479;28;20038;-70
2021/04/20 04:56:35;;;;;;;55.00;33.65;;;;;;;-145.19;100.00;59999.88;5024274;28;20121;-70
2021/04/20 04:59:05;;;;;;;49.03;30.77;;;;;;;-145.19;100.00;59999.88;5032119;28;20049;-70
2021/04/20 05:01:31;;;;;;;40.88;27.35;;;;;;;-145.19;100.00;59999.88;5029819;28;20049;-69
2021/04/20 05:04:07;;;;;;;41.47;25.75;;;;;;;-145.19;100.00;59999.88;5032865;28;20052;-69
2021/04/20 05:06:38;;;;;;;48.22;29.70;;;;;;;-145.19;100.00;59999.88;5029022;28;20041;-70
2021/04/20 05:09:08;;;;;;;32.63;23.40;;;;;;;-145.19;100.00;59999.88;5032999;28;20045;-69
2021/04/20 05:11:37;;;;;;;44.65;28.90;;;;;;;-145.19;100.00;59999.88;5026051;28;20077;-69
2021/04/20 05:14:03;;;;;;;54.80;34.35;;;;;;;-145.19;100.00;59999.88;5031087;28;20054;-69
2021/04/20 05:16:29;;;;;;;52.90;36.30;;;;;;;-145.19;100.00;59999.88;5031634;28;20045;-69
2021/04/20 05:18:59;;;;;;;50.80;36.08;;;;;;;-145.19;100.00;59999.88;5032963;28;20065;-72
2021/04/20 05:21:25;;;;;;;59.72;40.17;;;;;;;-145.19;100.00;59999.88;5022914;28;20049;-70
2021/04/20 05:23:52;;;;;;;53.13;37.10;;;;;;;-145.19;100.00;59999.88;5031853;28;20116;-70
2021/04/20 05:26:18;;;;;;;60.22;38.03;;;;;;;-145.19;100.00;59999.88;5028676;28;20413;-69
2021/04/20 05:28:45;;;;;;;55.47;36.85;;;;;;;-145.19;100.00;59999.88;5029440;28;20066;-67
2021/04/20 05:31:11;;;;;;;47.85;34.58;;;;;;;-145.19;100.00;59999.88;5026586;28;20057;-67
2021/04/20 05:33:38;;;;;;;58.77;37.47;;;;;;;-145.19;100.00;59999.88;5028621;28;20084;-68
2021/04/20 05:36:09;;;;;;;52.33;36.20;;;;;;;-145.19;100.00;59999.88;5030751;28;20282;-70
2021/04/20 05:38:36;;;;;;;55.90;36.63;;;;;;;-145.19;100.00;59999.88;5029023;28;20104;-70
2021/04/20 05:41:04;;;;;;;53.38;36.75;;;;;;;-145.19;100.00;59999.88;5028458;28;20107;-70
2021/04/20 05:43:30;;;;;;;54.00;35.65;;;;;;;-145.19;100.00;59999.88;5026671;28;20121;-68
2021/04/20 05:45:57;;;;;;;59.83;40.90;;;;;;;-145.19;100.00;59999.88;5027618;28;20508;-68
2021/04/20 05:48:24;;;;;;;133.82;74.05;;;;;;;-145.19;100.00;59999.88;5026974;28;20045;-68
2021/04/20 05:50:51;;;;;;;69.22;42.08;;;;;;;-145.19;100.00;59999.88;5027789;28;20409;-69
2021/04/20 05:53:17;;;;;;;50.17;32.03;;;;;;;-145.19;100.00;59999.88;5028092;28;20051;-69
2021/04/20 05:55:46;;;;;;;44.63;30.67;;;;;;;-145.19;100.00;59999.88;5027105;28;20088;-69
2021/04/20 05:58:13;;;;;;;39.60;27.92;;;;;;;-145.19;100.00;59999.88;5030481;28;20045;-69
2021/04/20 06:00:40;;;;;;;44.15;28.15;;;;;;;-145.19;100.00;59999.88;5032700;28;20072;-69
2021/04/20 06:03:06;;;;;;;43.07;28.03;;;;;;;-145.19;100.00;59999.88;5028420;28;20048;-69
2021/04/20 06:05:32;;;;;;;38.90;25.45;;;;;;;-145.19;100.00;59999.88;5029564;28;20088;-69
2021/04/20 06:08:05;;;;;;;36.88;25.10;;;;;;;-145.19;100.00;59999.88;5032458;28;20128;-69
2021/04/20 06:10:32;;;;;;;43.30;28.48;;;;;;;-145.19;100.00;59999.88;5045915;28;20128;-68
2021/04/20 06:12:58;;;;;;;40.80;26.15;;;;;;;-145.19;100.00;59999.88;5025634;28;20037;-70
2021/04/20 06:15:25;;;;;;;35.45;25.50;;;;;;;-145.19;100.00;59999.88;5045690;28;20064;-68
2021/04/20 06:17:55;;;;;;;34.45;25.15;;;;;;;-145.19;100.00;59999.88;5026954;28;20046;-69
2021/04/20 06:20:24;;;;;;;37.20;25.60;;;;;;;-145.19;100.00;59999.88;5032051;28;20060;-69
2021/04/20 06:22:52;;;;;;;;;;;;;;;-145.19;100.00;59999.88;5028747;28;20083;-70
2021/04/20 06:25:19;;;;;;;40.08;25.67;;;;;;;-145.19;100.00;59999.88;5029985;28;20280;-69
2021/04/20 06:27:47;;;;;;;37.92;25.58;;;;;;;-145.19;100.00;59999.88;5028761;28;20559;-68
2021/04/20 06:30:15;;;;;;;46.53;30.95;;;;;;;-145.19;100.00;59999.88;5029716;28;20076;-67
2021/04/20 06:32:43;;;;;;;43.30;27.15;;;;;;;-145.19;100.00;59999.88;5044616;28;20107;-68
2021/04/20 06:35:12;;;;;;;39.90;27.45;;;;;;;-145.19;100.00;59999.88;5028351;28;20041;-68
2021/04/20 06:37:40;;;;;;;48.47;31.67;;;;;;;-145.19;100.00;59999.88;5030567;28;20136;-69
2021/04/20 06:40:27;;;;;;;45.10;28.20;;;;;;;-145.19;100.00;59999.88;5030069;28;20037;-68
2021/04/20 06:43:01;;;;;;;50.83;31.48;;;;;;;-145.19;100.00;59999.88;5045230;28;20094;-69
2021/04/20 06:45:57;;;;;;;39.50;26.15;;;;;;;-145.19;100.00;59999.88;5035530;28;20396;-68
2021/04/20 06:48:39;;;;;;;37.35;26.45;;;;;;;-145.19;100.00;59999.88;5014972;28;20063;-68
2021/04/20 06:51:18;;;;;;;39.13;25.77;;;;;;;-145.19;100.00;59999.88;5031524;28;20469;-68
2021/04/20 06:54:03;;;;;;;40.95;27.27;;;;;;;-145.19;100.00;59999.88;5033014;28;20049;-69
2021/04/20 06:56:37;;;;;;;46.03;29.40;;;;;;;-145.19;100.00;59999.88;5035207;28;20059;-69
2021/04/20 06:59:41;;;;;;;46.50;30.35;;;;;;;-145.19;100.00;59999.88;5032992;28;20046;-69
2021/04/20 07:02:25;;;;;;;49.53;32.58;;;;;;;-145.19;100.00;59999.88;5031098;28;20052;-69
2021/04/20 07:04:57;;;;;;;40.50;27.73;;;;;;;-145.19;100.00;59999.88;5029517;28;20096;-68
2021/04/20 07:07:51;;;;;;;48.75;29.73;;;;;;;-145.19;100.00;59999.88;5032640;28;20096;-69
2021/04/20 07:10:29;;;;;;;47.88;30.58;;;;;;;-145.19;100.00;59999.88;5031513;28;20595;-69
2021/04/20 07:12:59;;;;;;;40.78;27.38;;;;;;;-145.19;100.00;59999.88;5031445;28;20049;-66
2021/04/20 07:15:27;;;;;;;41.83;28.48;;;;;;;-145.19;100.00;59999.88;5031199;28;20029;-69
2021/04/20 07:18:05;;;;;;;46.90;30.88;;;;;;;-145.19;100.00;59999.88;5034324;28;20038;-69
2021/04/20 07:20:55;;;;;;;49.83;33.30;;;;;;;-145.19;100.00;59999.88;5032979;28;20041;-69
2021/04/20 07:23:42;;;;;;;44.30;29.30;;;;;;;-145.19;100.00;59999.88;5033297;28;20052;-71
2021/04/20 07:26:36;;;;;;;44.83;28.77;;;;;;;-145.19;100.00;59999.88;5029388;28;20068;-69
2021/04/20 07:29:40;;;;;;;50.88;32.60;;;;;;;-145.19;100.00;59999.88;5034106;28;20045;-69
2021/04/20 07:32:27;;;;;;;52.28;34.70;;;;;;;-145.19;100.00;59999.88;5044384;28;20121;-70
2021/04/20 07:34:59;;;;;;;44.40;30.48;;;;;;;-145.19;100.00;59999.88;5027992;28;20101;-69
2021/04/20 07:37:46;;;;;;;42.80;29.42;;;;;;;-145.19;100.00;59999.88;5033244;28;20069;-69
2021/04/20 07:40:27;;;;;;;51.15;32.85;;;;;;;-145.19;100.00;59999.88;5027370;28;20121;-69
2021/04/20 07:43:00;;;;;;;38.53;26.33;;;;;;;-145.19;100.00;59999.88;5030606;28;20052;-69
2021/04/20 07:45:55;;;;;;;39.45;27.60;;;;;;;-145.19;100.00;59999.88;5021485;28;20045;-70
2021/04/20 07:48:49;;;;;;;37.17;27.08;;;;;;;-145.19;100.00;59999.88;5019277;28;20045;-69
2021/04/20 07:51:31;;;;;;;39.08;27.52;;;;;;;-145.19;100.00;59999.88;5029588;28;20367;-70
2021/04/20 07:54:10;;;;;;;36.47;26.45;;;;;;;-145.19;100.00;59999.88;5022675;28;20124;-70
2021/04/20 07:56:44;;;;;;;36.22;27.25;;;;;;;-145.19;100.00;59999.88;5022285;28;20120;-69
2021/04/20 07:59:42;;;;;;;38.35;28.17;;;;;;;-145.19;100.00;59999.88;5021845;28;20067;-69
2021/04/20 08:02:21;;;;;;;39.85;28.10;;;;;;;-145.19;100.00;59999.88;5026075;28;20550;-70
2021/04/20 08:05:13;;;;;;;46.05;31.98;;;;;;;-145.19;100.00;59999.88;5025985;28;20041;-69
2021/04/20 08:07:57;;;;;;;38.83;29.20;;;;;;;-145.19;100.00;59999.88;5027950;28;20041;-69
2021/04/20 08:10:45;;;;;;;40.05;29.38;;;;;;;-145.19;100.00;59999.88;5030881;28;20099;-69
2021/04/20 08:13:27;;;;;;;43.92;30.70;;;;;;;-145.19;100.00;59999.88;5028295;28;20043;-69
2021/04/20 08:16:08;;;;;;;42.45;29.90;;;;;;;-145.19;100.00;59999.88;5030870;28;20029;-69
2021/04/20 08:18:42;;;;;;;42.15;28.45;;;;;;;-145.19;100.00;59999.88;5029192;28;20079;-69
2021/04/20 08:21:12;;;;;;;40.92;28.65;;;;;;;-145.19;100.00;59999.88;5031391;28;20116;-69
2021/04/20 08:23:46;;;;;;;45.22;30.25;;;;;;;-145.19;100.00;59999.88;5028237;28;20037;-69
2021/04/20 08:26:21;;;;;;;41.38;30.50;;;;;;;-145.19;100.00;59999.88;5028517;28;20048;-67
2021/04/20 08:28:55;;;;;;;36.45;28.15;;;;;;;-145.19;100.00;59999.88;5030154;28;20037;-69
2021/04/20 08:31:30;;;;;;;36.95;27.92;;;;;;;-145.19;100.00;59999.88;5029688;28;20073;-69
2021/04/20 08:34:16;;;;;;;37.95;27.67;;;;;;;-145.19;100.00;59999.88;5029202;28;20048;-69
2021/04/20 08:37:06;;;;;;;39.25;28.23;;;;;;;-145.19;100.00;59999.88;5021869;28;20041;-69
2021/04/20 08:39:44;;;;;;;34.70;26.88;;;;;;;-145.19;100.00;59999.88;5027297;28;20116;-69
2021/04/20 08:42:32;;;;;;;36.50;26.88;;;;;;;-145.19;100.00;59999.88;5026113;28;20063;-69
2021/04/20 08:45:49;;;;;;;33.30;25.67;;;;;;;-145.19;100.00;59999.88;5029310;28;20042;-66
2021/04/20 08:48:38;;;;;;;34.38;26.30;;;;;;;-145.19;100.00;59999.88;4985869;28;20056;-67
2021/04/20 08:51:34;;;;;;;32.38;25.83;;;;;;;-145.19;100.00;59999.88;5030984;28;20065;-67
2021/04/20 08:54:10;;;;;;;34.10;27.70;;;;;;;-145.19;100.00;59999.88;5015733;28;20554;-67
2021/04/20 08:56:48;;;;;;;28.42;22.35;;;;;;;-145.19;100.00;59999.88;5029523;28;20405;-67
2021/04/20 08:59:53;;;;;;;29.13;23.48;;;;;;;-145.19;100.00;59999.88;5026753;28;20037;-67
2021/04/20 09:03:01;;;;;;;28.98;23.35;;;;;;;-145.19;100.00;59999.88;5024963;28;20404;-67
2021/04/20 09:05:49;;;;;;;28.48;23.95;;;;;;;-145.19;100.00;59999.88;5017427;28;20092;-67
2021/04/20 09:08:44;;;;;;;27.40;23.30;;;;;;;-145.19;100.00;59999.88;5027500;28;20049;-67
2021/04/20 09:11:15;;;;;;;27.27;22.33;;;;;;;-145.19;100.00;59999.88;5025957;28;20073;-70
2021/04/20 09:13:53;;;;;;;30.70;24.63;;;;;;;-145.19;100.00;59999.88;5026948;28;20090;-69
2021/04/20 09:16:26;;;;;;;28.38;23.63;;;;;;;-145.19;100.00;59999.88;5029606;28;20375;-68
2021/04/20 09:18:52;;;;;;;28.83;23.80;;;;;;;-145.19;100.00;59999.88;5028681;28;20493;-68
2021/04/20 09:21:28;;;;;;;31.20;25.65;;;;;;;-145.19;100.00;59999.88;5024923;28;20042;-69
2021/04/20 09:23:54;;;;;;;33.90;26.38;;;;;;;-145.19;100.00;59999.88;5022556;28;20073;-69
2021/04/20 09:26:34;;;;;;;30.63;25.83;;;;;;;-145.19;100.00;59999.88;5029527;28;20045;-68
2021/04/20 09:29:32;;;;;;;30.85;25.13;;;;;;;-145.19;100.00;59999.88;5029985;28;20041;-69
2021/04/20 09:32:04;;;;;;;31.73;23.75;;;;;;;-145.19;100.00;59999.88;5029279;28;20048;-69
2021/04/20 09:34:34;;;;;;;30.30;23.88;;;;;;;-145.19;100.00;59999.88;5028391;28;20057;-69
2021/04/20 09:37:03;;;;;;;31.35;25.50;;;;;;;-145.19;100.00;59999.88;5029817;28;20053;-69
2021/04/20 09:39:36;;;;;;;31.48;24.20;;;;;;;-145.19;100.00;59999.88;5024122;28;20049;-69
2021/04/20 09:42:05;;;;;;;27.90;22.48;;;;;;;-145.19;100.00;59999.88;5030393;28;20171;-69
2021/04/20 09:44:49;;;;;;;28.63;22.77;;;;;;;-145.19;100.00;59999.88;5023421;28;20509;-70
2021/04/20 09:47:29;;;;;;;28.38;22.48;;;;;;;-145.19;100.00;59999.88;5030521;28;20042;-69
2021/04/20 09:49:59;;;;;;;27.38;21.60;;;;;;;-145.19;100.00;59999.88;5027469;28;20049;-69
2021/04/20 09:52:36;;;;;;;28.52;21.92;;;;;;;-145.19;100.00;59999.88;5028679;28;20066;-71
2021/04/20 09:55:07;;;;;;;24.67;20.10;;;;;;;-145.19;100.00;59999.88;5028627;28;20042;-69
2021/04/20 09:57:37;;;;;;;28.10;22.75;;;;;;;-145.19;100.00;59999.88;5030296;28;20462;-69
2021/04/20 10:00:05;;;;;;;29.65;22.38;;;;;;;-145.19;100.00;59999.88;5027865;28;20389;-68
2021/04/20 10:02:35;;;;;;;30.23;22.75;;;;;;;-145.19;100.00;59999.88;5025911;28;20064;-69
2021/04/20 10:05:47;;;;;;;23.27;20.55;;;;;;;-145.19;100.00;59999.88;5029821;28;20081;-68
2021/04/20 10:08:51;;;;;;;24.98;21.58;;;;;;;-145.19;100.00;59999.88;5028603;28;20105;-69
2021/04/20 10:11:43;;;;;;;24.08;21.42;;;;;;;-145.19;100.00;59999.88;5028363;28;20041;-69
2021/04/20 10:14:31;;;;;;;24.38;21.17;;;;;;;-145.19;100.00;59999.88;5030251;28;20103;-69
2021/04/20 10:17:14;;;;;;;23.02;20.35;;;;;;;-145.19;100.00;59999.88;5031536;28;20038;-69
2021/04/20 10:19:48;;;;;;;24.15;20.27;;;;;;;-145.19;100.00;59999.88;5033553;28;20037;-70
2021/04/20 10:22:51;;;;;;;23.70;20.52;;;;;;;-145.19;100.00;59999.88;5027568;28;20042;-68
2021/04/20 10:25:33;;;;;;;27.38;22.35;;;;;;;-145.19;100.00;59999.88;5030159;28;20071;-69
2021/04/20 10:28:16;;;;;;;24.63;19.77;;;;;;;-145.19;100.00;59999.88;5036063;28;20444;-69
2021/04/20 10:30:45;;;;;;;22.73;19.95;;;;;;;-145.19;100.00;59999.88;5035622;28;20505;-68
2021/04/20 10:33:14;;;;;;;20.30;17.92;;;;;;;-145.19;100.00;59999.88;5034492;28;20482;-68
2021/04/20 10:35:43;;;;;;;20.65;18.35;;;;;;;-145.19;100.00;59999.88;5034509;28;20145;-68
2021/04/20 10:38:13;;;;;;;19.75;17.50;;;;;;;-145.19;100.00;59999.88;5035861;28;20072;-68
2021/04/20 10:40:44;;;;;;;21.88;18.45;;;;;;;-145.19;100.00;59999.88;5033512;28;20548;-68
2021/04/20 10:43:17;;;;;;;21.52;19.15;;;;;;;-145.19;100.00;59999.88;5033580;28;20053;-69
2021/04/20 10:45:44;;;;;;;21.40;18.90;;;;;;;-145.19;100.00;59999.88;5033865;28;20517;-69
2021/04/20 10:48:17;;;;;;;22.67;19.05;;;;;;;-145.19;100.00;59999.88;5023304;28;20489;-70
2021/04/20 10:50:48;;;;;;;22.13;19.52;;;;;;;-145.19;100.00;59999.88;5033042;28;20045;-68
2021/04/20 10:53:30;;;;;;;19.92;17.67;;;;;;;-145.19;100.00;59999.88;5034771;28;20072;-70
2021/04/20 10:56:11;;;;;;;22.38;18.83;;;;;;;-145.19;100.00;59999.88;5029348;28;20083;-68
2021/04/20 10:58:44;;;;;;;37.47;26.35;;;;;;;-145.19;100.00;59999.88;5034828;28;20481;-70
2021/04/20 11:01:30;;;;;;;21.63;19.33;;;;;;;-145.19;100.00;59999.88;5033789;28;20099;-67
2021/04/20 11:03:59;;;;;;;23.98;19.73;;;;;;;-145.19;100.00;59999.88;5036023;28;20049;-68
2021/04/20 11:06:44;;;;;;;27.20;21.00;;;;;;;-145.19;100.00;59999.88;5033685;28;20413;-68
2021/04/20 11:09:11;;;;;;;36.13;24.63;;;;;;;-145.19;100.00;59999.88;5024940;28;20069;-68
2021/04/20 11:11:39;;;;;;;110.85;53.30;;;;;;;-145.19;100.00;59999.88;5034412;28;20052;-69
2021/04/20 11:14:06;;;;;;;44.53;27.92;;;;;;;-145.19;100.00;59999.88;5032710;28;20072;-67
2021/04/20 11:16:39;;;;;;;27.70;22.75;;;;;;;-145.19;100.00;59999.88;5043077;28;20045;-67
2021/04/20 11:19:09;;;;;;;22.00;17.45;;;;;;;-145.19;100.00;59999.88;5042886;28;20490;-68
2021/04/20 11:21:40;;;;;;;20.35;18.05;;;;;;;-145.19;100.00;59999.88;5034595;28;20529;-67